createdAt,value
2022-09-28T00:00:23.852Z,99501.41
2022-09-28T00:04:25.638Z,99509.38
2022-09-28T00:08:27.414Z,99518.59
2022-09-28T00:12:31.009Z,99510.78
2022-09-28T00:16:35.962Z,99515.94
2022-09-28T00:20:37.835Z,99510.78
2022-09-28T00:24:39.627Z,99498.47
2022-09-28T00:28:41.281Z,99495.56
2022-09-28T00:32:43.391Z,99496.75
2022-09-28T00:36:47.909Z,99498.94
2022-09-28T00:40:49.652Z,99495.63
2022-09-28T00:44:52.293Z,99488.03
2022-09-28T00:49:03.154Z,99482.88
2022-09-28T00:53:10.793Z,99485.56
2022-09-28T00:57:13.970Z,99482.72
2022-09-28T01:01:16.473Z,99477.00
2022-09-28T01:05:20.401Z,99477.66
2022-09-28T01:09:22.297Z,99477.47
2022-09-28T01:13:25.141Z,99485.66
2022-09-28T01:17:39.926Z,99483.59
2022-09-28T01:22:11.313Z,99492.25
2022-09-28T01:26:37.525Z,99493.53
2022-09-28T01:31:00.860Z,99499.50
2022-09-28T01:35:08.374Z,99509.13
2022-09-28T01:39:15.375Z,99507.47
2022-09-28T01:43:32.675Z,99504.38
2022-09-28T01:47:38.523Z,99497.56
2022-09-28T01:51:45.950Z,99506.22
2022-09-28T01:55:57.006Z,99501.25
2022-09-28T02:00:09.347Z,99510.63
2022-09-28T02:04:54.038Z,99514.72
2022-09-28T02:09:02.294Z,99496.56
2022-09-28T02:13:28.152Z,99480.22
2022-09-28T02:17:30.027Z,99477.56
2022-09-28T02:22:03.257Z,99485.72
2022-09-28T02:26:12.054Z,99500.88
2022-09-28T02:30:14.184Z,99507.66
2022-09-28T02:34:15.845Z,99506.47
2022-09-28T02:38:17.710Z,99502.78
2022-09-28T02:42:23.892Z,99485.78
2022-09-28T02:46:40.779Z,99492.78
2022-09-28T02:51:07.975Z,99490.28
2022-09-28T02:55:21.821Z,99496.63
2022-09-28T02:59:43.782Z,99501.75
2022-09-28T03:04:02.318Z,99521.41
2022-09-28T03:08:11.336Z,99525.94
2022-09-28T03:12:17.214Z,99528.78
2022-09-28T03:16:20.118Z,99509.50
2022-09-28T03:20:24.695Z,99511.13
2022-09-28T03:24:26.877Z,99503.16
2022-09-28T03:28:29.726Z,99498.03
2022-09-28T03:32:32.513Z,99502.53
2022-09-28T03:36:34.506Z,99486.34
2022-09-28T03:40:36.300Z,99483.53
2022-09-28T03:44:38.519Z,99489.84
2022-09-28T03:48:41.003Z,99491.50
2022-09-28T03:52:44.693Z,99491.50
2022-09-28T03:56:46.918Z,99493.16
2022-09-28T04:00:49.711Z,99492.69
2022-09-28T04:04:51.555Z,99486.47
2022-09-28T04:08:53.330Z,99485.38
2022-09-28T04:12:56.732Z,99494.72
2022-09-28T04:16:58.438Z,99490.63
2022-09-28T04:21:07.136Z,99500.44
2022-09-28T04:25:14.016Z,99502.91
2022-09-28T04:29:16.129Z,99499.06
2022-09-28T04:33:29.827Z,99507.03
2022-09-28T04:37:31.655Z,99521.53
2022-09-28T04:41:33.930Z,99525.00
2022-09-28T04:45:36.185Z,99520.34
2022-09-28T04:49:43.206Z,99510.69
2022-09-28T04:54:04.486Z,99518.66
2022-09-28T04:58:06.215Z,99521.34
2022-09-28T05:02:08.515Z,99526.03
2022-09-28T05:06:30.831Z,99518.41
2022-09-28T05:10:42.041Z,99509.81
2022-09-28T05:14:43.934Z,99506.66
2022-09-28T05:18:45.977Z,99510.03
2022-09-28T05:22:48.157Z,99513.41
2022-09-28T05:26:50.304Z,99521.59
2022-09-28T05:30:58.930Z,99519.56
2022-09-28T05:35:20.979Z,99526.19
2022-09-28T05:39:23.631Z,99538.13
2022-09-28T05:43:25.298Z,99538.41
2022-09-28T05:47:27.725Z,99542.56
2022-09-28T05:51:29.749Z,99528.03
2022-09-28T05:55:32.380Z,99505.56
2022-09-28T05:59:35.311Z,99504.38
2022-09-28T06:03:37.363Z,99504.00
2022-09-28T06:07:42.829Z,99501.63
2022-09-28T06:11:45.161Z,99498.94
2022-09-28T06:16:08.538Z,99498.13
2022-09-28T06:20:11.750Z,99498.75
2022-09-28T06:24:31.013Z,99509.13
2022-09-28T06:28:32.805Z,99509.28
2022-09-28T06:32:34.676Z,99528.75
2022-09-28T06:36:36.410Z,99536.03
2022-09-28T06:40:38.521Z,99535.34
2022-09-28T06:44:41.111Z,99538.16
2022-09-28T06:48:44.179Z,99546.03
2022-09-28T06:53:08.706Z,99553.28
2022-09-28T06:57:39.763Z,99550.25
2022-09-28T07:01:41.627Z,99545.75
2022-09-28T07:06:15.380Z,99560.06
2022-09-28T07:10:32.580Z,99553.97
2022-09-28T07:14:47.718Z,99555.69
2022-09-28T07:18:50.321Z,99558.22
2022-09-28T07:22:56.726Z,99559.13
2022-09-28T07:26:59.853Z,99567.38
2022-09-28T07:31:20.342Z,99568.44
2022-09-28T07:35:29.293Z,99573.84
2022-09-28T07:39:52.515Z,99583.75
2022-09-28T07:43:55.508Z,99586.88
2022-09-28T07:47:57.249Z,99587.78
2022-09-28T07:52:13.111Z,99586.00
2022-09-28T07:56:53.097Z,99591.41
2022-09-28T08:01:07.980Z,99587.13
2022-09-28T08:05:10.790Z,99592.06
2022-09-28T08:09:12.583Z,99597.84
2022-09-28T08:13:55.499Z,99597.06
2022-09-28T08:18:18.237Z,99607.81
2022-09-28T08:22:20.511Z,99611.34
2022-09-28T08:26:24.917Z,99606.66
2022-09-28T08:30:27.476Z,99608.78
2022-09-28T08:34:48.352Z,99609.69
2022-09-28T08:39:13.250Z,99619.81
2022-09-28T08:44:12.283Z,99620.66
2022-09-28T08:48:56.192Z,99629.56
2022-09-28T08:53:35.846Z,99631.47
2022-09-28T08:57:58.038Z,99634.19
2022-09-28T09:02:04.515Z,99641.22
2022-09-28T09:06:42.309Z,99651.97
2022-09-28T09:11:51.413Z,99645.34
2022-09-28T09:16:38.291Z,99646.53
2022-09-28T09:21:29.551Z,99655.16
2022-09-28T09:25:47.573Z,99655.56
2022-09-28T09:30:20.479Z,99655.56
2022-09-28T09:34:54.634Z,99658.03
2022-09-28T09:39:38.875Z,99656.44
2022-09-28T09:44:18.596Z,99651.13
2022-09-28T09:49:05.637Z,99658.34
2022-09-28T09:53:18.995Z,99664.34
2022-09-28T09:57:26.682Z,99664.53
2022-09-28T10:01:52.165Z,99653.81
2022-09-28T10:06:07.742Z,99661.03
2022-09-28T10:10:21.618Z,99658.97
2022-09-28T10:14:25.729Z,99666.19
2022-09-28T10:18:36.681Z,99663.53
2022-09-28T10:22:58.265Z,99662.50
2022-09-28T10:27:06.594Z,99667.66
2022-09-28T10:31:41.993Z,99664.38
2022-09-28T10:35:55.191Z,99666.44
2022-09-28T10:39:57.469Z,99668.47
2022-09-28T10:44:08.947Z,99651.13
2022-09-28T10:49:05.550Z,99662.00
2022-09-28T10:53:17.383Z,99661.16
2022-09-28T10:57:37.738Z,99664.03
2022-09-28T11:01:42.466Z,99663.44
2022-09-28T11:06:04.437Z,99659.75
2022-09-28T11:10:18.204Z,99672.16
2022-09-28T11:14:39.721Z,99671.16
2022-09-28T11:18:46.512Z,99673.03
2022-09-28T11:22:51.070Z,99676.75
2022-09-28T11:26:57.791Z,99670.13
2022-09-28T11:31:03.138Z,99681.25
2022-09-28T11:35:44.367Z,99680.41
2022-09-28T11:40:01.481Z,99677.13
2022-09-28T11:44:15.583Z,99672.19
2022-09-28T11:48:49.405Z,99670.53
2022-09-28T11:53:00.663Z,99668.50
2022-09-28T11:57:05.140Z,99672.81
2022-09-28T12:01:35.686Z,99676.94
2022-09-28T12:06:06.552Z,99672.19
2022-09-28T12:10:35.840Z,99669.28
2022-09-28T12:14:40.248Z,99665.97
2022-09-28T12:19:30.861Z,99674.19
2022-09-28T12:23:35.886Z,99672.50
2022-09-28T12:27:47.870Z,99674.56
2022-09-28T12:31:55.949Z,99671.66
2022-09-28T12:36:09.694Z,99675.34
2022-09-28T12:40:35.959Z,99671.38
2022-09-28T12:44:45.281Z,99667.41
2022-09-28T12:50:07.296Z,99673.81
2022-09-28T12:53:53.209Z,99668.28
2022-09-28T12:57:58.329Z,99674.94
2022-09-28T13:02:15.028Z,99668.38
2022-09-28T13:06:47.392Z,99674.97
2022-09-28T13:10:58.669Z,99681.19
2022-09-28T13:15:23.731Z,99683.66
2022-09-28T13:19:37.402Z,99688.00
2022-09-28T13:23:45.289Z,99693.78
2022-09-28T13:27:57.955Z,99702.63
2022-09-28T13:32:01.564Z,99709.00
2022-09-28T13:36:24.758Z,99708.00
2022-09-28T13:41:04.806Z,99708.84
2022-09-28T13:45:22.497Z,99710.31
2022-09-28T13:49:36.311Z,99703.50
2022-09-28T13:53:40.613Z,99709.72
2022-09-28T13:57:56.000Z,99722.88
2022-09-28T14:02:18.969Z,99724.94
2022-09-28T14:06:32.450Z,99722.91
2022-09-28T14:10:52.158Z,99717.94
2022-09-28T14:14:54.046Z,99715.25
2022-09-28T14:19:20.554Z,99720.81
2022-09-28T14:23:30.634Z,99723.69
2022-09-28T14:28:06.750Z,99729.88
2022-09-28T14:32:08.477Z,99729.06
2022-09-28T14:37:01.782Z,99724.94
2022-09-28T14:41:11.012Z,99724.53
2022-09-28T14:45:12.710Z,99728.66
2022-09-28T14:49:20.493Z,99721.44
2022-09-28T14:53:24.895Z,99734.44
2022-09-28T14:57:31.302Z,99736.50
2022-09-28T15:01:36.146Z,99740.59
2022-09-28T15:05:49.664Z,99741.44
2022-09-28T15:09:55.371Z,99757.09
2022-09-28T15:14:08.411Z,99751.56
2022-09-28T15:18:19.271Z,99757.91
2022-09-28T15:22:21.784Z,99754.81
2022-09-28T15:26:33.433Z,99753.41
2022-09-28T15:30:36.593Z,99752.56
2022-09-28T15:34:54.689Z,99747.41
2022-09-28T15:38:59.373Z,99748.03
2022-09-28T15:43:02.501Z,99743.91
2022-09-28T15:47:28.591Z,99741.84
2022-09-28T15:51:44.948Z,99740.34
2022-09-28T15:55:50.339Z,99737.69
2022-09-28T15:59:57.104Z,99735.25
2022-09-28T16:03:59.779Z,99742.22
2022-09-28T16:08:05.400Z,99743.28
2022-09-28T16:12:11.564Z,99752.53
2022-09-28T16:16:17.000Z,99753.56
2022-09-28T16:20:46.577Z,99754.56
2022-09-28T16:24:57.460Z,99754.59
2022-09-28T16:28:59.949Z,99757.91
2022-09-28T16:33:05.309Z,99762.22
2022-09-28T16:37:31.516Z,99759.56
2022-09-28T16:41:33.292Z,99772.75
2022-09-28T16:45:37.853Z,99766.78
2022-09-28T16:49:40.071Z,99763.47
2022-09-28T16:54:00.582Z,99763.44
2022-09-28T16:58:04.718Z,99771.44
2022-09-28T17:02:44.967Z,99778.25
2022-09-28T17:06:43.641Z,99782.34
2022-09-28T17:11:23.405Z,99786.00
2022-09-28T17:15:26.053Z,99785.19
2022-09-28T17:19:29.865Z,99786.59
2022-09-28T17:23:31.888Z,99797.91
2022-09-28T17:27:34.749Z,99793.97
2022-09-28T17:31:36.419Z,99793.91
2022-09-28T17:35:39.770Z,99796.38
2022-09-28T17:39:41.552Z,99797.16
2022-09-28T17:43:43.901Z,99802.28
2022-09-28T17:47:45.720Z,99808.41
2022-09-28T17:51:47.495Z,99811.88
2022-09-28T17:55:49.207Z,99805.47
2022-09-28T17:59:51.160Z,99805.22
2022-09-28T18:03:52.870Z,99808.50
2022-09-28T18:07:54.799Z,99803.91
2022-09-28T18:12:01.109Z,99805.34
2022-09-28T18:16:03.813Z,99804.06
2022-09-28T18:20:07.973Z,99804.66
2022-09-28T18:24:09.893Z,99812.03
2022-09-28T18:28:14.540Z,99806.25
2022-09-28T18:32:16.457Z,99800.84
2022-09-28T18:36:18.179Z,99806.13
2022-09-28T18:40:20.268Z,99802.41
2022-09-28T18:44:22.628Z,99799.94
2022-09-28T18:48:27.792Z,99800.31
2022-09-28T18:52:29.793Z,99800.69
2022-09-28T18:56:31.446Z,99794.09
2022-09-28T19:00:33.628Z,99797.78
2022-09-28T19:04:35.287Z,99793.81
2022-09-28T19:08:37.432Z,99790.72
2022-09-28T19:12:39.152Z,99791.94
2022-09-28T19:16:41.362Z,99799.31
2022-09-28T19:20:44.639Z,99799.31
2022-09-28T19:24:46.390Z,99805.03
2022-09-28T19:28:48.718Z,99804.41
2022-09-28T19:32:50.374Z,99810.38
2022-09-28T19:36:52.010Z,99819.41
2022-09-28T19:40:53.869Z,99814.44
2022-09-28T19:44:55.584Z,99819.53
2022-09-28T19:49:00.870Z,99812.72
2022-09-28T19:53:04.282Z,99820.94
2022-09-28T19:57:08.017Z,99816.41
2022-09-28T20:01:10.050Z,99821.75
2022-09-28T20:05:11.821Z,99824.41
2022-09-28T20:09:13.493Z,99825.44
2022-09-28T20:13:15.213Z,99840.66
2022-09-28T20:17:16.881Z,99846.34
2022-09-28T20:21:24.960Z,99843.84
2022-09-28T20:25:27.737Z,99852.44
2022-09-28T20:29:31.786Z,99846.28
2022-09-28T20:33:35.568Z,99845.47
2022-09-28T20:37:37.292Z,99840.50
2022-09-28T20:41:39.088Z,99846.19
2022-09-28T20:45:40.818Z,99843.72
2022-09-28T20:49:42.549Z,99844.56
2022-09-28T20:53:48.931Z,99833.63
2022-09-28T20:57:50.609Z,99841.16
2022-09-28T21:01:52.730Z,99837.00
2022-09-28T21:05:55.522Z,99832.84
2022-09-28T21:09:57.980Z,99834.44
2022-09-28T21:14:02.198Z,99833.53
2022-09-28T21:18:04.030Z,99837.75
2022-09-28T21:22:06.949Z,99833.34
2022-09-28T21:26:18.969Z,99835.66
2022-09-28T21:30:20.934Z,99837.63
2022-09-28T21:34:22.591Z,99840.38
2022-09-28T21:38:24.319Z,99841.75
2022-09-28T21:42:26.016Z,99833.28
2022-09-28T21:46:33.571Z,99838.53
2022-09-28T21:50:35.133Z,99843.94
2022-09-28T21:54:37.418Z,99853.31
2022-09-28T21:58:40.234Z,99853.03
2022-09-28T22:02:43.070Z,99861.38
2022-09-28T22:06:44.770Z,99868.28
2022-09-28T22:10:57.633Z,99865.13
2022-09-28T22:14:59.578Z,99863.84
2022-09-28T22:19:01.607Z,99860.03
2022-09-28T22:23:03.486Z,99862.25
2022-09-28T22:27:05.118Z,99864.63
2022-09-28T22:31:06.861Z,99868.47
2022-09-28T22:35:09.095Z,99868.81
2022-09-28T22:39:10.805Z,99874.53
2022-09-28T22:43:12.487Z,99868.72
2022-09-28T22:47:14.136Z,99878.06
2022-09-28T22:51:16.887Z,99871.81
2022-09-28T22:55:18.537Z,99871.31
2022-09-28T22:59:20.320Z,99867.19
2022-09-28T23:03:22.198Z,99875.34
2022-09-28T23:07:23.870Z,99879.00
2022-09-28T23:11:25.546Z,99878.00
2022-09-28T23:15:28.602Z,99875.50
2022-09-28T23:19:30.274Z,99875.84
2022-09-28T23:23:32.708Z,99885.88
2022-09-28T23:27:34.393Z,99886.22
2022-09-28T23:31:36.244Z,99887.56
2022-09-28T23:35:37.934Z,99881.59
2022-09-28T23:39:39.793Z,99885.25
2022-09-28T23:43:41.517Z,99883.97
2022-09-28T23:47:43.174Z,99885.13
2022-09-28T23:51:44.864Z,99878.97
2022-09-28T23:55:46.555Z,99872.00
2022-09-28T23:59:48.210Z,99874.81
